178-й км

Карта отелей и гостиниц, располагающихся рядом с аэропортом 178-й км :

178-й км Ханты-Мансийский автономный округ - Югра 62° 59' 27.6" N, 60° 57' 59.2812" E
178-й км Ханты-Мансийский автономный округ - Югра 62° 59' 27.6" N, 60° 57' 59.2812" E
Код аэродрома ИКАО: 
HB3E
Код аэродрома RU: 
ХБ3Е
Координаты: 
N62.99100° E060.96647°
Превышение над уровнем моря : 
162
Основная полоса: 
15/33
Курс магнитный: 
147,6/327,6
Длина основной ВПП: 
20
Ширина основной ВПП: 
20
Покрытие основной ВПП: 
Твёрдое
Освещение ВПП: 
Нет
Тип: 
Вертодром
Класс аэродрома: 
Принадлежность: 
ГА
Статус: 
Действующий
Сайт: 
E-mail аэродрома: 
Страна: 
Россия
Регион: 
Ханты-Мансийский автономный округ - Югра
Город: 
Дополнительная информация: 

Найти трансфер

С помощью этой формы Вы можете найти трансфер из аэропорта 178-й км в город, аэропорт или вокзал:

Карта места

Javascript is required to view this map.

Погода в аэропортах:

Авиационная погода в Мирном

Регион: 
Погода METAR: 
UERR 270400Z 35004MPS 3000 HZ NSC 07/01 Q1004 R25/250337 NOSIG RMK QFE722/0963
Время наблюдения: 
2020-09-27T04:00:00Z
Температура C: 
7.0
Точка росы: 
1.0
Направление ветра: 
350
Скорость ветра (узлы): 
8
Метеорологическая видимость: 
1.86
Явления погоды: 
HZ
Условия полета: 
IFR
Аэропорт подробнее: 

Авиационная погода в Борисполе

Регион: 
Погода METAR: 
UKBB 271030Z 12009MPS 080V150 5000 BR BKN040 16/14 Q1008 R18L/290050 TEMPO 14011G18MPS 2100 -TSRA SQ BKN014CB
Время наблюдения: 
2020-09-27T10:30:00Z
Температура C: 
16.0
Точка росы: 
14.0
Направление ветра: 
120
Скорость ветра (узлы): 
17
Метеорологическая видимость: 
3.11
Явления погоды: 
BR
Условия полета: 
MVFR
Аэропорт подробнее: 

Авиационная погода в Ивано-Франковске

Регион: 
Погода METAR: 
UKLI 271030Z 09001MPS 8000 -SHRA BKN012CB BKN023 11/10 Q1007 R28/290565 NOSIG
Время наблюдения: 
2020-09-27T10:30:00Z
Температура C: 
11.0
Точка росы: 
10.0
Направление ветра: 
90
Скорость ветра (узлы): 
2
Метеорологическая видимость: 
4.97
Явления погоды: 
-SHRA
Условия полета: 
MVFR
Аэропорт подробнее: 

Авиационная погода в Куусамо

Регион: 
Погода METAR: 
EFKS 271020Z AUTO 09007KT 050V140 9999 -RA OVC005 06/05 Q1026
Время наблюдения: 
2020-09-27T10:20:00Z
Температура C: 
6.0
Точка росы: 
5.0
Направление ветра: 
90
Скорость ветра (узлы): 
7
Метеорологическая видимость: 
6.21
Явления погоды: 
-RA
Условия полета: 
IFR